Time;durP1;ratioP1;P1;durP2;ratioP2;P2;SDS_P1;SDS_P2;PMS_P1;PMS_P2;Temp;Humidity;BMP_temperature;BMP_pressure;BME280_temperature;BME280_humidity;BME280_pressure;Samples;Min_cycle;Max_cycle;Signal;HPM_P1;HPM_P2
2023/03/17 00:01:07;;;;;;;8.13;4.40;;;7.50;99.90;;;;;;5017144;28;20200;-76
2023/03/17 00:03:36;;;;;;;8.55;5.32;;;7.50;99.90;;;;;;5002960;28;20041;-77
2023/03/17 00:06:03;;;;;;;8.82;5.60;;;7.50;99.90;;;;;;4990900;28;20583;-77
2023/03/17 00:08:34;;;;;;;8.07;5.45;;;7.50;99.90;;;;;;4995805;28;20069;-77
2023/03/17 00:11:01;;;;;;;8.27;4.75;;;7.50;99.90;;;;;;5002196;28;20045;-77
2023/03/17 00:13:27;;;;;;;7.90;4.88;;;7.50;99.90;;;;;;5018428;28;20133;-78
2023/03/17 00:16:02;;;;;;;14.73;5.18;;;7.50;99.90;;;;;;5022787;28;20327;-77
2023/03/17 00:18:30;;;;;;;10.68;5.18;;;7.50;99.90;;;;;;5023624;28;20389;-78
2023/03/17 00:20:57;;;;;;;8.15;4.93;;;7.50;99.90;;;;;;4988620;28;20233;-77
2023/03/17 00:23:24;;;;;;;11.93;5.32;;;7.40;99.90;;;;;;4999251;28;20278;-77
2023/03/17 00:25:52;;;;;;;10.43;5.25;;;7.50;99.90;;;;;;5013175;28;20132;-77
2023/03/17 00:28:22;;;;;;;7.65;4.88;;;7.40;99.90;;;;;;5027248;28;20045;-77
2023/03/17 00:30:53;;;;;;;7.10;4.43;;;7.40;99.90;;;;;;5005053;28;20045;-77
2023/03/17 00:33:21;;;;;;;9.18;5.38;;;7.40;99.90;;;;;;5003605;28;20057;-77
2023/03/17 00:35:47;;;;;;;9.98;5.10;;;7.40;99.90;;;;;;5001359;28;20525;-77
2023/03/17 00:38:16;;;;;;;9.48;4.80;;;7.40;99.90;;;;;;5022524;28;20059;-77
2023/03/17 00:40:43;;;;;;;7.20;5.05;;;7.40;99.90;;;;;;5000853;28;20041;-77
2023/03/17 00:43:09;;;;;;;7.63;4.95;;;7.40;99.90;;;;;;5025708;28;20064;-77
2023/03/17 00:45:37;;;;;;;9.93;5.20;;;7.40;99.90;;;;;;5001680;28;20127;-77
2023/03/17 00:48:09;;;;;;;7.13;4.70;;;7.40;99.90;;;;;;5020028;28;20045;-78
2023/03/17 00:50:35;;;;;;;9.57;5.20;;;7.40;99.90;;;;;;5005986;28;20037;-78
2023/03/17 00:53:01;;;;;;;8.80;5.18;;;7.40;99.90;;;;;;5003123;28;20584;-77
2023/03/17 00:55:27;;;;;;;8.15;4.72;;;7.40;99.90;;;;;;5005263;28;20049;-78
2023/03/17 00:57:53;;;;;;;9.90;5.15;;;7.40;99.90;;;;;;4987423;28;20037;-77
2023/03/17 01:00:25;;;;;;;6.95;4.53;;;7.50;99.90;;;;;;5014702;28;20126;-78
2023/03/17 01:02:53;;;;;;;8.90;4.17;;;7.50;99.90;;;;;;5006791;28;20044;-78
2023/03/17 01:05:21;;;;;;;8.88;4.40;;;7.50;99.90;;;;;;5017000;28;20058;-77
2023/03/17 01:07:51;;;;;;;9.32;4.72;;;7.50;99.90;;;;;;5011312;28;20045;-77
2023/03/17 01:10:22;;;;;;;7.00;4.30;;;7.50;99.90;;;;;;4998502;28;20206;-77
2023/03/17 01:12:48;;;;;;;11.50;5.07;;;7.50;99.90;;;;;;4989936;28;20053;-77
2023/03/17 01:15:16;;;;;;;9.45;4.80;;;7.50;99.90;;;;;;4983807;28;20053;-78
2023/03/17 01:17:42;;;;;;;9.85;4.55;;;7.50;99.90;;;;;;4987007;28;20056;-78
2023/03/17 01:20:15;;;;;;;6.63;4.82;;;7.50;99.90;;;;;;5000550;28;20041;-78
2023/03/17 01:22:42;;;;;;;8.30;4.38;;;7.50;99.90;;;;;;4981431;28;21943;-78
2023/03/17 01:25:10;;;;;;;7.82;4.82;;;7.50;99.90;;;;;;4999792;28;20037;-78
2023/03/17 01:27:36;;;;;;;8.57;4.40;;;7.50;99.90;;;;;;5005703;28;20054;-78
2023/03/17 01:30:04;;;;;;;7.88;4.72;;;7.50;99.90;;;;;;4979991;28;20512;-78
2023/03/17 01:32:29;;;;;;;7.03;4.65;;;7.50;99.90;;;;;;5023005;28;20561;-78
2023/03/17 01:34:55;;;;;;;7.13;4.40;;;7.50;99.90;;;;;;5003968;28;20053;-78
2023/03/17 01:37:21;;;;;;;8.65;4.35;;;7.50;99.90;;;;;;5012775;28;20471;-78
2023/03/17 01:39:47;;;;;;;7.25;4.65;;;7.50;99.90;;;;;;4997639;28;20037;-78
2023/03/17 01:42:13;;;;;;;9.75;4.50;;;7.50;99.90;;;;;;5003473;28;20099;-78
2023/03/17 01:44:58;;;;;;;8.50;4.38;;;7.50;99.90;;;;;;5001656;28;20149;-77
2023/03/17 01:47:27;;;;;;;8.90;4.20;;;7.40;99.90;;;;;;4999819;28;20077;-78
2023/03/17 01:49:53;;;;;;;5.22;3.95;;;7.50;99.90;;;;;;5021046;28;20053;-77
2023/03/17 01:52:21;;;;;;;6.18;4.03;;;7.40;99.90;;;;;;4988158;28;20397;-78
2023/03/17 01:54:57;;;;;;;7.93;4.93;;;7.40;99.90;;;;;;5001924;28;20048;-78
2023/03/17 01:57:31;;;;;;;8.60;4.30;;;7.40;99.90;;;;;;4999448;28;20057;-78
2023/03/17 02:00:17;;;;;;;8.30;4.20;;;7.40;99.90;;;;;;5015606;28;20525;-78
2023/03/17 02:02:46;;;;;;;8.43;4.50;;;7.40;99.90;;;;;;4998092;28;20103;-77
2023/03/17 02:05:16;;;;;;;8.57;4.10;;;7.40;99.90;;;;;;5000032;28;20042;-77
2023/03/17 02:07:43;;;;;;;8.75;4.47;;;7.40;99.90;;;;;;5016288;28;20406;-77
2023/03/17 02:10:11;;;;;;;7.93;4.50;;;7.40;99.90;;;;;;4981540;28;20099;-77
2023/03/17 02:12:41;;;;;;;6.50;4.00;;;7.40;99.90;;;;;;5016626;28;20079;-77
2023/03/17 02:15:07;;;;;;;6.35;3.75;;;7.30;99.90;;;;;;5006186;28;20143;-77
2023/03/17 02:17:33;;;;;;;6.07;4.25;;;7.30;99.90;;;;;;4984029;28;20054;-78
2023/03/17 02:20:15;;;;;;;8.02;4.30;;;7.30;99.90;;;;;;5002556;28;20057;-77
2023/03/17 02:22:43;;;;;;;6.75;3.97;;;7.30;99.90;;;;;;5018264;28;20060;-77
2023/03/17 02:25:10;;;;;;;5.88;3.67;;;7.30;99.90;;;;;;5003683;28;20168;-77
2023/03/17 02:27:41;;;;;;;7.18;4.13;;;7.30;99.90;;;;;;5010529;28;20048;-78
2023/03/17 02:30:09;;;;;;;7.95;4.50;;;7.30;99.90;;;;;;5024123;28;20065;-78
2023/03/17 02:32:36;;;;;;;7.03;3.80;;;7.30;99.90;;;;;;5012949;28;20103;-77
2023/03/17 02:35:03;;;;;;;7.43;3.70;;;7.30;99.90;;;;;;5014756;28;20049;-78
2023/03/17 02:37:29;;;;;;;8.75;3.97;;;7.30;99.90;;;;;;5009831;28;20045;-78
2023/03/17 02:39:55;;;;;;;9.02;4.68;;;7.20;99.90;;;;;;5024481;28;20053;-77
2023/03/17 02:42:20;;;;;;;7.13;4.38;;;7.20;99.90;;;;;;5026184;28;21560;-78
2023/03/17 02:44:47;;;;;;;7.70;3.90;;;7.20;99.90;;;;;;4999719;28;20052;-77
2023/03/17 02:47:13;;;;;;;9.63;3.90;;;7.20;99.90;;;;;;4999424;28;20054;-78
2023/03/17 02:49:40;;;;;;;7.30;4.43;;;7.10;99.90;;;;;;5019034;28;20045;-78
2023/03/17 02:52:07;;;;;;;9.07;4.60;;;7.10;99.90;;;;;;5012622;28;20505;-78
2023/03/17 02:54:33;;;;;;;7.03;4.35;;;7.10;99.90;;;;;;5011789;28;20108;-78
2023/03/17 02:56:59;;;;;;;8.30;4.00;;;7.10;99.90;;;;;;5018998;28;20537;-78
2023/03/17 02:59:26;;;;;;;8.32;4.05;;;7.10;99.90;;;;;;5021000;28;20451;-78
2023/03/17 03:01:51;;;;;;;6.65;3.83;;;7.10;99.90;;;;;;4983421;28;20041;-78
2023/03/17 03:04:18;;;;;;;7.95;3.70;;;7.00;99.90;;;;;;4987277;28;20037;-78
2023/03/17 03:06:45;;;;;;;5.82;3.53;;;7.10;99.90;;;;;;5017688;28;20052;-77
2023/03/17 03:09:12;;;;;;;9.68;4.18;;;7.00;99.90;;;;;;5021895;28;20038;-77
2023/03/17 03:11:39;;;;;;;5.32;3.65;;;7.10;99.90;;;;;;5006760;28;20069;-78
2023/03/17 03:14:07;;;;;;;6.43;3.75;;;7.00;99.90;;;;;;5000477;28;20063;-78
2023/03/17 03:16:33;;;;;;;7.50;3.80;;;7.00;99.90;;;;;;5006657;28;20492;-78
2023/03/17 03:18:58;;;;;;;5.63;3.75;;;7.10;99.90;;;;;;5021183;28;20048;-79
2023/03/17 03:21:24;;;;;;;7.90;3.83;;;7.00;99.90;;;;;;4988663;28;20041;-79
2023/03/17 03:23:50;;;;;;;6.72;3.90;;;7.00;99.90;;;;;;4988470;28;20652;-78
2023/03/17 03:26:15;;;;;;;8.88;4.20;;;7.00;99.90;;;;;;5001916;28;20049;-79
2023/03/17 03:28:41;;;;;;;6.25;3.67;;;7.00;99.90;;;;;;5024840;28;20099;-79
2023/03/17 03:31:07;;;;;;;6.75;3.90;;;7.00;99.90;;;;;;5016489;28;20055;-79
2023/03/17 03:33:33;;;;;;;6.53;3.80;;;7.00;99.90;;;;;;5007196;28;20047;-79
2023/03/17 03:35:59;;;;;;;7.32;4.13;;;7.00;99.90;;;;;;5024083;28;20124;-78
2023/03/17 03:38:26;;;;;;;8.10;3.90;;;7.00;99.90;;;;;;4995871;28;20133;-79
2023/03/17 03:40:51;;;;;;;6.22;3.78;;;7.00;99.90;;;;;;5003817;28;20526;-78
2023/03/17 03:43:17;;;;;;;6.72;4.65;;;7.00;99.90;;;;;;5017152;28;20042;-78
2023/03/17 03:45:43;;;;;;;8.90;3.95;;;7.00;99.90;;;;;;5019710;28;20045;-78
2023/03/17 03:48:10;;;;;;;6.30;3.75;;;7.00;99.90;;;;;;5006870;28;20408;-78
2023/03/17 03:50:35;;;;;;;7.13;4.10;;;7.00;99.90;;;;;;5028364;28;20068;-78
2023/03/17 03:53:01;;;;;;;8.32;3.78;;;7.10;99.90;;;;;;5016563;28;20552;-77
2023/03/17 03:55:27;;;;;;;6.25;3.95;;;7.10;99.90;;;;;;4989978;28;20481;-78
2023/03/17 03:57:52;;;;;;;8.30;4.90;;;7.10;99.90;;;;;;5023534;28;20556;-78
2023/03/17 04:00:19;;;;;;;6.45;3.95;;;7.00;99.90;;;;;;5021649;28;20053;-79
2023/03/17 04:02:45;;;;;;;5.53;3.63;;;7.00;99.90;;;;;;5002952;28;20820;-78
2023/03/17 04:05:13;;;;;;;10.32;3.80;;;7.00;99.90;;;;;;4999289;28;20329;-78
2023/03/17 04:07:40;;;;;;;8.13;3.67;;;7.00;99.90;;;;;;5008006;28;20044;-78
2023/03/17 04:10:07;;;;;;;9.63;3.95;;;7.00;99.90;;;;;;5023263;28;20057;-78
2023/03/17 04:12:33;;;;;;;6.13;4.13;;;7.00;99.90;;;;;;5019599;28;20047;-78
2023/03/17 04:14:59;;;;;;;8.07;3.80;;;7.00;99.90;;;;;;5015109;28;20045;-78
2023/03/17 04:17:25;;;;;;;5.88;3.70;;;7.00;99.90;;;;;;4996468;28;20220;-78
2023/03/17 04:19:51;;;;;;;6.78;4.30;;;6.90;99.90;;;;;;5024738;28;20219;-79
2023/03/17 04:22:17;;;;;;;6.55;4.07;;;6.90;99.90;;;;;;5004133;28;20615;-79
2023/03/17 04:24:42;;;;;;;5.30;3.40;;;6.90;99.90;;;;;;5018763;28;20054;-79
2023/03/17 04:27:09;;;;;;;7.22;3.70;;;7.00;99.90;;;;;;5006779;28;20523;-79
2023/03/17 04:29:35;;;;;;;6.03;4.05;;;6.90;99.90;;;;;;5025423;28;20135;-79
2023/03/17 04:32:02;;;;;;;8.10;4.20;;;6.90;99.90;;;;;;4985041;28;20319;-78
2023/03/17 04:34:28;;;;;;;6.85;3.72;;;6.80;99.90;;;;;;4990626;28;20045;-78
2023/03/17 04:36:54;;;;;;;5.70;3.95;;;6.80;99.90;;;;;;5021788;28;20065;-78
2023/03/17 04:39:19;;;;;;;6.13;4.00;;;6.80;99.90;;;;;;5024994;28;20072;-78
2023/03/17 04:41:45;;;;;;;5.50;3.55;;;6.80;99.90;;;;;;5012757;28;20136;-79
2023/03/17 04:44:11;;;;;;;6.88;4.30;;;6.80;99.90;;;;;;5019359;28;20566;-78
2023/03/17 04:46:37;;;;;;;8.05;3.65;;;6.80;99.90;;;;;;4999813;28;20049;-78
2023/03/17 04:49:03;;;;;;;6.10;3.60;;;6.80;99.90;;;;;;5027463;28;20033;-78
2023/03/17 04:51:29;;;;;;;5.07;3.47;;;6.80;99.90;;;;;;5005202;28;20045;-79
2023/03/17 04:53:55;;;;;;;6.03;3.67;;;6.80;99.90;;;;;;5007478;28;20060;-79
2023/03/17 04:56:21;;;;;;;6.03;3.80;;;6.80;99.90;;;;;;5005336;28;20075;-78
2023/03/17 04:58:46;;;;;;;6.57;3.80;;;6.80;99.90;;;;;;4992777;28;20050;-79
2023/03/17 05:01:12;;;;;;;7.07;3.72;;;6.80;99.90;;;;;;5005441;28;20991;-79
2023/03/17 05:03:39;;;;;;;6.00;3.45;;;6.80;99.90;;;;;;5033306;28;20175;-79
2023/03/17 05:06:05;;;;;;;5.85;3.72;;;6.80;99.90;;;;;;5024975;28;20401;-79
2023/03/17 05:08:31;;;;;;;7.72;4.80;;;6.90;99.90;;;;;;5003179;28;20101;-78
2023/03/17 05:10:57;;;;;;;6.57;4.00;;;6.90;99.90;;;;;;5020713;28;20516;-79
2023/03/17 05:13:24;;;;;;;6.22;3.78;;;6.90;99.90;;;;;;5009576;28;20038;-79
2023/03/17 05:15:52;;;;;;;6.18;3.80;;;6.90;99.90;;;;;;5023015;28;20061;-79
2023/03/17 05:18:19;;;;;;;6.03;3.63;;;7.00;99.90;;;;;;5007257;28;20492;-79
2023/03/17 05:20:45;;;;;;;8.80;4.43;;;7.00;99.90;;;;;;5019393;28;20094;-79
2023/03/17 05:23:11;;;;;;;6.57;4.00;;;7.00;99.90;;;;;;5024342;28;20132;-78
2023/03/17 05:25:37;;;;;;;6.07;3.70;;;7.00;99.90;;;;;;5007101;28;20053;-78
2023/03/17 05:28:03;;;;;;;6.63;3.67;;;7.00;99.90;;;;;;5009923;28;20045;-78
2023/03/17 05:30:29;;;;;;;6.80;4.28;;;7.00;99.90;;;;;;5022780;28;20428;-78
2023/03/17 05:32:54;;;;;;;5.43;3.65;;;7.00;99.90;;;;;;5028306;28;20052;-79
2023/03/17 05:35:20;;;;;;;9.23;4.18;;;7.00;99.90;;;;;;5026350;28;20049;-79
2023/03/17 05:37:46;;;;;;;8.55;4.57;;;7.00;99.90;;;;;;4992905;28;20040;-79
2023/03/17 05:40:13;;;;;;;5.45;3.70;;;7.10;99.90;;;;;;4996774;28;20050;-78
2023/03/17 05:42:40;;;;;;;10.27;4.20;;;7.10;99.90;;;;;;5006356;28;20070;-79
2023/03/17 05:45:07;;;;;;;7.38;4.00;;;7.00;99.90;;;;;;5022753;28;20064;-79
2023/03/17 05:47:33;;;;;;;8.18;4.40;;;7.00;99.90;;;;;;5006596;28;20083;-78
2023/03/17 05:50:00;;;;;;;6.18;3.58;;;7.00;99.90;;;;;;5000566;28;20037;-79
2023/03/17 05:52:26;;;;;;;8.13;4.55;;;7.10;99.90;;;;;;5007179;28;20049;-79
2023/03/17 05:54:53;;;;;;;7.40;4.45;;;7.10;99.90;;;;;;4986899;28;20332;-79
2023/03/17 05:57:19;;;;;;;7.60;4.40;;;7.00;99.90;;;;;;5008703;28;20064;-79
2023/03/17 05:59:45;;;;;;;6.95;4.07;;;7.00;99.90;;;;;;5023735;28;20057;-79
2023/03/17 06:02:11;;;;;;;8.85;4.18;;;7.00;99.90;;;;;;5012067;28;20497;-79
2023/03/17 06:04:37;;;;;;;6.97;4.20;;;7.10;99.90;;;;;;5003399;28;20526;-79
2023/03/17 06:07:06;;;;;;;9.55;5.00;;;7.10;99.90;;;;;;4997533;28;20102;-79
2023/03/17 06:09:32;;;;;;;6.15;4.22;;;7.10;99.90;;;;;;4998690;28;20481;-79
2023/03/17 06:11:59;;;;;;;8.57;5.60;;;7.10;99.90;;;;;;4996691;28;20076;-79
2023/03/17 06:14:25;;;;;;;5.80;3.78;;;7.10;99.90;;;;;;4994082;28;20425;-79
2023/03/17 06:16:50;;;;;;;5.90;4.00;;;7.10;99.90;;;;;;5017525;28;20061;-80
2023/03/17 06:19:16;;;;;;;9.00;3.97;;;7.10;99.90;;;;;;5001560;28;20095;-80
2023/03/17 06:21:42;;;;;;;7.03;4.38;;;7.10;99.90;;;;;;5016367;28;20248;-79
2023/03/17 06:24:08;;;;;;;6.30;3.78;;;7.20;99.90;;;;;;5003549;28;20056;-79
2023/03/17 06:26:36;;;;;;;7.57;3.70;;;7.20;99.90;;;;;;5004505;28;20040;-79
2023/03/17 06:29:02;;;;;;;7.38;3.55;;;7.20;99.90;;;;;;5012588;28;20085;-79
2023/03/17 06:31:28;;;;;;;6.65;3.78;;;7.20;99.90;;;;;;5022404;28;20592;-80
2023/03/17 06:33:56;;;;;;;8.05;3.13;;;7.20;99.90;;;;;;5022533;28;20053;-79
2023/03/17 06:36:22;;;;;;;6.82;3.95;;;7.30;99.90;;;;;;5005055;28;20157;-77
2023/03/17 06:38:48;;;;;;;10.57;5.43;;;7.30;99.90;;;;;;5023414;28;20125;-80
2023/03/17 06:41:15;;;;;;;9.32;4.70;;;7.30;99.90;;;;;;4994910;28;20746;-83
2023/03/17 06:43:40;;;;;;;8.35;4.15;;;7.30;99.90;;;;;;4996678;28;20044;-77
2023/03/17 06:46:07;;;;;;;6.57;3.10;;;7.40;99.90;;;;;;5018425;28;20045;-78
2023/03/17 06:48:33;;;;;;;9.40;4.25;;;7.40;99.90;;;;;;5007093;28;20069;-80
2023/03/17 06:51:00;;;;;;;7.15;4.00;;;7.40;99.90;;;;;;4985404;28;20142;-77
2023/03/17 06:53:26;;;;;;;14.43;3.88;;;7.50;99.90;;;;;;5005152;28;20079;-79
2023/03/17 06:55:52;;;;;;;7.07;3.60;;;7.50;99.90;;;;;;5026847;28;20034;-80
2023/03/17 06:58:19;;;;;;;5.97;3.60;;;7.60;99.90;;;;;;5003397;28;20099;-79
2023/03/17 07:00:47;;;;;;;7.43;4.03;;;7.60;99.90;;;;;;5015484;28;20053;-80
2023/03/17 07:03:14;;;;;;;9.10;4.38;;;7.60;99.90;;;;;;4995932;28;20050;-80
2023/03/17 07:05:40;;;;;;;8.45;4.32;;;7.60;99.90;;;;;;5024798;28;20044;-80
2023/03/17 07:08:07;;;;;;;8.35;4.22;;;7.60;99.90;;;;;;5009560;28;20069;-80
2023/03/17 07:10:35;;;;;;;12.90;4.43;;;7.60;99.90;;;;;;4984905;28;20029;-80
2023/03/17 07:13:01;;;;;;;10.60;4.72;;;7.70;99.90;;;;;;4989971;28;20774;-79
2023/03/17 07:15:30;;;;;;;9.95;4.72;;;7.60;99.90;;;;;;4989495;28;20053;-80
2023/03/17 07:17:56;;;;;;;7.32;3.70;;;7.70;99.90;;;;;;5018696;28;20136;-80
2023/03/17 07:20:21;;;;;;;8.90;4.57;;;7.70;99.90;;;;;;5007879;28;20202;-80
2023/03/17 07:22:47;;;;;;;9.05;4.30;;;7.80;99.90;;;;;;4998212;28;20049;-80
2023/03/17 07:25:13;;;;;;;6.72;4.03;;;7.90;99.90;;;;;;4999914;28;20046;-80
2023/03/17 07:27:38;;;;;;;10.13;4.43;;;7.90;99.90;;;;;;4999965;28;20037;-79
2023/03/17 07:30:05;;;;;;;8.32;4.25;;;8.00;99.90;;;;;;5002326;28;20135;-78
2023/03/17 07:32:31;;;;;;;7.20;4.05;;;8.00;99.90;;;;;;4998292;28;20042;-78
2023/03/17 07:34:58;;;;;;;6.55;3.60;;;8.20;99.90;;;;;;4998997;28;20050;-81
2023/03/17 07:37:24;;;;;;;6.20;3.35;;;8.30;99.90;;;;;;5006486;28;20045;-78
2023/03/17 07:39:50;;;;;;;6.45;3.35;;;8.40;99.90;;;;;;5021567;28;20045;-80
2023/03/17 07:42:16;;;;;;;5.68;3.22;;;8.50;99.90;;;;;;5018796;28;20069;-81
2023/03/17 07:44:42;;;;;;;7.88;3.80;;;8.60;99.90;;;;;;5030019;28;20413;-82
2023/03/17 07:47:10;;;;;;;8.32;3.40;;;8.70;99.90;;;;;;5032288;28;20041;-80
2023/03/17 07:49:37;;;;;;;7.22;4.00;;;8.70;99.90;;;;;;5029053;28;20053;-81
2023/03/17 07:52:05;;;;;;;5.63;3.50;;;8.80;99.90;;;;;;4996108;28;20531;-80
2023/03/17 07:54:31;;;;;;;9.70;4.00;;;8.80;99.90;;;;;;5013010;28;20062;-83
2023/03/17 07:56:57;;;;;;;6.72;3.03;;;8.80;99.90;;;;;;4986825;28;20439;-82
2023/03/17 07:59:22;;;;;;;9.25;3.45;;;8.80;99.90;;;;;;4961315;28;20163;-82
2023/03/17 08:01:49;;;;;;;4.50;2.80;;;8.80;99.90;;;;;;4951545;28;20046;-80
2023/03/17 08:04:15;;;;;;;7.38;3.72;;;8.80;99.90;;;;;;4998003;28;20136;-79
2023/03/17 08:06:41;;;;;;;7.47;3.00;;;8.80;99.90;;;;;;4971250;28;20097;-80
2023/03/17 08:09:08;;;;;;;5.38;3.03;;;8.90;99.90;;;;;;4971061;28;20042;-78
2023/03/17 08:11:35;;;;;;;7.70;4.05;;;9.00;99.90;;;;;;4978954;28;20051;-78
2023/03/17 08:14:01;;;;;;;5.82;3.47;;;9.00;99.90;;;;;;4972442;28;20041;-78
2023/03/17 08:16:28;;;;;;;5.97;3.60;;;9.10;99.90;;;;;;4990632;28;20054;-76
2023/03/17 08:18:54;;;;;;;8.52;3.53;;;9.20;99.90;;;;;;4978932;28;20183;-71
2023/03/17 08:21:19;;;;;;;6.30;3.53;;;9.20;99.90;;;;;;5024429;28;20128;-71
2023/03/17 08:23:45;;;;;;;6.40;3.30;;;9.30;99.90;;;;;;5002376;28;20130;-71
2023/03/17 08:26:13;;;;;;;9.02;4.35;;;9.40;99.90;;;;;;4997413;28;20042;-71
2023/03/17 08:28:40;;;;;;;6.50;3.80;;;9.50;99.90;;;;;;4968738;28;20041;-69
2023/03/17 08:31:07;;;;;;;5.95;3.88;;;9.70;99.90;;;;;;4992908;28;20037;-69
2023/03/17 08:33:33;;;;;;;15.02;3.53;;;9.80;99.90;;;;;;5028806;28;20057;-69
2023/03/17 08:36:02;;;;;;;7.80;3.55;;;10.00;99.90;;;;;;5008443;28;20038;-69
2023/03/17 08:38:27;;;;;;;6.35;3.15;;;10.10;99.90;;;;;;4998144;28;20034;-71
2023/03/17 08:40:53;;;;;;;7.05;3.42;;;10.30;99.90;;;;;;5016900;28;20408;-71
2023/03/17 08:43:18;;;;;;;10.55;4.20;;;10.40;99.90;;;;;;4988869;28;20039;-71
2023/03/17 08:45:44;;;;;;;10.70;3.50;;;10.50;99.90;;;;;;5010533;28;20117;-71
2023/03/17 08:48:10;;;;;;;4.85;3.30;;;10.60;99.90;;;;;;4984883;28;20055;-71
2023/03/17 08:50:36;;;;;;;6.30;3.58;;;10.70;99.90;;;;;;4990532;28;20038;-71
2023/03/17 08:53:02;;;;;;;6.85;3.78;;;10.80;99.90;;;;;;4987712;28;21206;-71
2023/03/17 08:55:28;;;;;;;6.30;3.33;;;10.80;99.90;;;;;;4971077;28;20050;-71
2023/03/17 08:57:54;;;;;;;4.93;3.20;;;10.90;99.90;;;;;;4968211;28;20413;-72
2023/03/17 09:00:20;;;;;;;13.35;5.97;;;11.00;99.90;;;;;;5004826;28;20049;-71
2023/03/17 09:02:47;;;;;;;10.25;5.43;;;11.00;99.90;;;;;;5009542;28;20045;-71
2023/03/17 09:05:15;;;;;;;5.68;3.35;;;11.10;99.90;;;;;;4985250;28;20041;-72
2023/03/17 09:07:42;;;;;;;6.40;3.17;;;11.10;99.90;;;;;;5007420;28;20034;-71
2023/03/17 09:10:11;;;;;;;8.32;4.00;;;11.10;99.90;;;;;;5013043;28;20053;-72
2023/03/17 09:12:37;;;;;;;6.05;3.20;;;11.20;99.90;;;;;;4985410;28;20056;-70
2023/03/17 09:15:04;;;;;;;7.50;3.50;;;11.30;99.90;;;;;;5005225;28;20869;-70
2023/03/17 09:17:29;;;;;;;6.20;3.40;;;11.50;99.90;;;;;;5005281;28;20069;-70
2023/03/17 09:19:56;;;;;;;5.88;3.42;;;11.60;99.90;;;;;;4984074;28;20108;-70
2023/03/17 09:22:22;;;;;;;7.40;3.30;;;11.70;99.90;;;;;;5008084;28;20044;-69
2023/03/17 09:24:47;;;;;;;5.95;3.17;;;11.90;99.90;;;;;;5010050;28;20050;-70
2023/03/17 09:27:13;;;;;;;7.68;4.15;;;12.00;99.90;;;;;;5000093;28;20039;-69
2023/03/17 09:29:40;;;;;;;7.07;3.28;;;12.00;99.90;;;;;;5005959;28;20050;-70
2023/03/17 09:32:07;;;;;;;8.68;4.05;;;12.00;99.90;;;;;;4989005;28;20128;-70
2023/03/17 09:34:34;;;;;;;7.15;3.90;;;12.00;99.90;;;;;;4989636;28;20149;-70
2023/03/17 09:37:00;;;;;;;10.20;3.58;;;12.00;99.90;;;;;;4988884;28;20121;-70
2023/03/17 09:39:26;;;;;;;8.07;3.80;;;12.20;99.90;;;;;;5005609;28;20175;-71
2023/03/17 09:42:07;;;;;;;10.52;4.93;;;12.20;99.90;;;;;;4989154;28;20041;-71
2023/03/17 09:44:45;;;;;;;9.52;4.07;;;12.30;99.90;;;;;;5008058;28;20121;-71
2023/03/17 09:47:34;;;;;;;10.88;5.38;;;12.40;99.90;;;;;;4991017;28;20042;-70
2023/03/17 09:50:07;;;;;;;9.70;4.88;;;12.50;99.90;;;;;;5012716;28;20046;-70
2023/03/17 09:52:35;;;;;;;;;;;12.60;99.90;;;;;;5003728;28;20065;-70
2023/03/17 09:55:04;;;;;;;12.57;6.78;;;12.70;99.90;;;;;;5016276;28;20293;-70
2023/03/17 09:57:34;;;;;;;9.95;4.22;;;12.80;99.90;;;;;;5006933;28;20056;-70
2023/03/17 10:00:06;;;;;;;10.13;4.15;;;13.00;99.90;;;;;;4996723;28;20049;-70
2023/03/17 10:02:34;;;;;;;7.32;3.88;;;13.10;99.90;;;;;;5022852;28;20076;-70
2023/03/17 10:05:20;;;;;;;6.45;3.67;;;13.20;99.90;;;;;;5009313;28;20173;-71
2023/03/17 10:08:14;;;;;;;7.30;4.00;;;13.30;99.90;;;;;;5005920;28;20041;-70
2023/03/17 10:10:52;;;;;;;9.75;4.35;;;13.40;99.90;;;;;;4991354;28;20118;-70
2023/03/17 10:13:47;;;;;;;9.48;4.75;;;13.40;99.90;;;;;;5007548;28;20501;-70
2023/03/17 10:16:21;;;;;;;7.97;4.05;;;13.50;99.90;;;;;;4991815;28;20084;-70
2023/03/17 10:18:59;;;;;;;7.43;4.30;;;13.60;99.90;;;;;;5005703;28;20120;-70
2023/03/17 10:21:33;;;;;;;8.13;4.10;;;13.60;99.90;;;;;;5027596;28;20152;-71
2023/03/17 10:24:02;;;;;;;8.05;4.45;;;13.70;99.90;;;;;;5007213;28;20120;-70
2023/03/17 10:26:38;;;;;;;7.97;4.30;;;13.70;99.90;;;;;;4982883;28;20050;-72
2023/03/17 10:29:11;;;;;;;6.65;4.25;;;13.70;99.90;;;;;;5011005;28;20073;-73
2023/03/17 10:31:38;;;;;;;6.45;4.45;;;13.80;99.90;;;;;;4995291;28;20065;-74
2023/03/17 10:34:20;;;;;;;7.50;4.18;;;13.90;99.90;;;;;;4996024;28;22667;-72
2023/03/17 10:36:50;;;;;;;8.68;5.18;;;14.00;99.90;;;;;;5005547;28;20041;-73
2023/03/17 10:39:23;;;;;;;9.57;4.88;;;14.00;99.90;;;;;;5010301;28;20052;-72
2023/03/17 10:41:58;;;;;;;7.30;4.63;;;14.00;99.90;;;;;;5018707;28;20377;-72
2023/03/17 10:44:43;;;;;;;7.93;4.35;;;14.10;99.90;;;;;;4995120;28;20037;-72
2023/03/17 10:47:30;;;;;;;7.68;4.47;;;14.20;99.90;;;;;;4989651;28;20088;-72
2023/03/17 10:50:01;;;;;;;8.70;4.88;;;14.30;99.90;;;;;;5004512;28;20049;-72
2023/03/17 10:52:34;;;;;;;9.45;4.43;;;14.40;99.90;;;;;;5026401;28;20116;-73
2023/03/17 10:55:04;;;;;;;6.50;4.22;;;14.40;99.90;;;;;;5022019;28;20048;-72
2023/03/17 10:57:31;;;;;;;7.20;4.47;;;14.50;99.90;;;;;;5004999;28;20046;-73
2023/03/17 11:00:00;;;;;;;8.98;5.28;;;14.60;99.90;;;;;;5002280;28;20041;-73
2023/03/17 11:02:34;;;;;;;7.88;4.18;;;14.60;99.90;;;;;;4994658;28;20483;-73
2023/03/17 11:05:08;;;;;;;7.32;4.72;;;14.60;99.90;;;;;;4980926;28;22628;-73
2023/03/17 11:07:39;;;;;;;8.98;5.00;;;14.60;99.90;;;;;;5016287;28;20091;-73
2023/03/17 11:10:22;;;;;;;8.25;4.97;;;14.70;99.90;;;;;;4987244;28;20049;-72
2023/03/17 11:13:03;;;;;;;12.15;5.65;;;14.60;99.90;;;;;;5017594;28;20458;-73
2023/03/17 11:15:34;;;;;;;8.52;4.40;;;14.60;99.90;;;;;;4985609;28;20049;-73
2023/03/17 11:18:02;;;;;;;9.30;4.60;;;14.70;99.90;;;;;;4999944;28;20056;-73
2023/03/17 11:20:37;;;;;;;8.38;4.93;;;14.60;99.90;;;;;;5001276;28;20119;-73
2023/03/17 11:23:35;;;;;;;8.98;4.90;;;14.60;99.90;;;;;;5019957;28;20144;-73
2023/03/17 11:26:32;;;;;;;8.45;5.18;;;14.60;99.90;;;;;;5016943;28;20092;-74
2023/03/17 11:29:19;;;;;;;11.82;5.38;;;14.50;99.90;;;;;;4990626;28;20489;-72
2023/03/17 11:31:57;;;;;;;10.70;5.35;;;14.30;99.90;;;;;;5024099;28;20049;-72
2023/03/17 11:34:35;;;;;;;7.38;4.78;;;14.20;99.90;;;;;;5011603;28;20045;-73
2023/03/17 11:37:25;;;;;;;8.35;5.15;;;14.30;99.90;;;;;;5022597;28;20052;-73
2023/03/17 11:40:09;;;;;;;10.38;5.05;;;14.30;99.90;;;;;;5005606;28;20042;-72
2023/03/17 11:43:14;;;;;;;9.57;5.68;;;14.30;99.90;;;;;;5007322;28;20519;-73
2023/03/17 11:45:45;;;;;;;12.60;5.40;;;14.40;99.90;;;;;;4993405;28;20128;-75
2023/03/17 11:48:26;;;;;;;10.18;5.70;;;14.40;99.90;;;;;;5024730;28;20068;-72
2023/03/17 11:51:21;;;;;;;10.13;4.65;;;14.50;99.90;;;;;;5022816;28;20192;-74
2023/03/17 11:53:53;;;;;;;10.63;5.30;;;14.50;99.90;;;;;;5025808;28;20433;-72
2023/03/17 11:56:24;;;;;;;7.78;5.50;;;14.50;99.90;;;;;;5001020;28;20528;-73
2023/03/17 11:59:00;;;;;;;7.90;5.07;;;14.50;99.90;;;;;;5025924;28;20045;-72
2023/03/17 12:02:05;;;;;;;8.30;4.93;;;14.40;99.90;;;;;;5010806;28;20061;-73
2023/03/17 12:04:36;;;;;;;9.40;5.07;;;14.40;99.90;;;;;;5026037;28;20052;-72
2023/03/17 12:07:20;;;;;;;9.30;5.63;;;14.50;99.90;;;;;;5019336;28;20500;-71
2023/03/17 12:09:57;;;;;;;11.50;5.35;;;14.50;99.90;;;;;;5010682;28;20136;-72
2023/03/17 12:12:36;;;;;;;10.30;6.50;;;14.50;99.90;;;;;;4992050;28;20041;-73
2023/03/17 12:15:04;;;;;;;8.85;6.20;;;14.60;99.90;;;;;;5020705;28;20045;-74
2023/03/17 12:17:52;;;;;;;6.90;5.03;;;14.70;99.90;;;;;;5018499;28;20075;-73
2023/03/17 12:20:28;;;;;;;11.45;5.75;;;14.70;99.90;;;;;;5001432;28;20088;-72
2023/03/17 12:23:00;;;;;;;10.93;6.40;;;14.70;99.90;;;;;;4995692;28;20046;-73
2023/03/17 12:25:39;;;;;;;9.25;5.85;;;14.70;99.90;;;;;;5003353;28;20042;-73
2023/03/17 12:28:19;;;;;;;10.98;5.75;;;14.70;99.90;;;;;;4988075;28;20516;-73
2023/03/17 12:30:53;;;;;;;13.38;5.53;;;14.80;99.90;;;;;;5023990;28;20050;-73
2023/03/17 12:33:51;;;;;;;8.68;5.45;;;14.90;99.90;;;;;;5004227;28;20143;-74
2023/03/17 12:36:17;;;;;;;9.90;6.10;;;15.10;99.90;;;;;;4977950;28;20049;-74
2023/03/17 12:38:51;;;;;;;9.15;5.65;;;15.30;99.90;;;;;;4999436;28;20072;-73
2023/03/17 12:41:25;;;;;;;8.80;5.68;;;15.30;99.90;;;;;;4994138;28;20061;-74
2023/03/17 12:44:04;;;;;;;10.50;5.80;;;15.20;99.90;;;;;;5014843;28;20485;-74
2023/03/17 12:46:58;;;;;;;8.57;6.13;;;15.10;99.90;;;;;;5012627;28;20111;-71
2023/03/17 12:49:56;;;;;;;9.07;6.05;;;14.90;99.90;;;;;;4992862;28;20049;-70
2023/03/17 12:52:51;;;;;;;13.73;6.57;;;14.80;99.90;;;;;;5015474;28;20494;-70
2023/03/17 12:55:22;;;;;;;11.68;6.15;;;14.70;99.90;;;;;;4997749;28;20119;-71
2023/03/17 12:58:00;;;;;;;10.18;6.88;;;14.70;99.90;;;;;;5000688;28;20050;-70
2023/03/17 13:00:30;;;;;;;11.95;7.05;;;14.70;99.90;;;;;;5012156;28;20053;-70
2023/03/17 13:03:22;;;;;;;13.45;7.03;;;14.60;99.90;;;;;;5026848;28;20452;-70
2023/03/17 13:05:51;;;;;;;8.88;5.90;;;14.70;99.90;;;;;;5026920;28;20103;-70